Forest Grove, OR

6:50 PM PDT on October 20, 2014 (GMT -0700)
Near Hwy 6 - 8 Junction | Change Station
CLOSE
Current Station
Personal Weather Station
Location: Gales Creek, OR
Elevation: 338 ft
Nearby Weather Stations

Elev 338 ft 45.61 °N, 123.23 °W | Updated 10 seconds ago

Overcast
Overcast
53.8 °F
Feels Like 53.8 °F
N
0.0
Wind Variable Wind from SSW
Gusts 0.0 mph

Today
High -- | Low -- °F
--% Chance of Precip.
Yesterday
High -- | Low -- °F
Precip. -- in
7:36 AM 6:18 PM
Waning Crescent, 8% visible
Pressure 29.79 in
Visibility 10.0 miles
Clouds Few 4200 ft
Scattered Clouds 5500 ft
Overcast 7000 ft
Dew Point 52 °F
Humidity 95%
Rainfall 0.36 in
Snow Depth 0 in
UV 0 out of 12
Pollen .40 out of 12
Ozone Good
PM2.5 Good
Flu Activity Sporadic
METAR KHIO 210053Z 14009KT 10SM -RA FEW042 SCT055 OVC070 15/13 A2979 RMK AO2 RAB53 SLP087 P0000 T01500128

More Conditions Fewer Conditions

Pressure 29.79 in
Visibility 10.0 miles
Clouds Few 4200 ft
Scattered Clouds 5500 ft
Overcast 7000 ft
Dew Point 52 °F
Humidity 95%
Rainfall 0.36 in
Snow Depth 0 in
UV 0 out of 12
Pollen .40 out of 12
Ozone Good
PM2.5 Good
Flu Activity Sporadic
METAR KHIO 210053Z 14009KT 10SM -RA FEW042 SCT055 OVC070 15/13 A2979 RMK AO2 RAB53 SLP087 P0000 T01500128

More Conditions Fewer Conditions

Nowcast | as of 5:52 PM PDT on October 20, 2014

At 550 PM...a broken line of moderate to heavy showers that has produced a bit of lightning was moving through the Willamette Valley and along Interstate 5 in southwest Washington...and will move into the Cascade foothills in the next hour. Expect a brief period of reduced visibility from the rain and Road spray. Hydroplaning is also possible as water ponds on roadways.

×

10-Day Weather Forecast

Almanac

Astronomy

Oct. 20, 2014 Rise Set
Actual Time 7:36 AM PDT 6:18 PM PDT
Civil Twilight 7:05 AM PDT 6:48 PM PDT
Nautical Twilight 6:31 AM PDT 7:22 PM PDT
Astronomical Twilight 5:57 AM PDT 7:57 PM PDT
Moon 4:20 AM PDT (10/20) 4:51 PM PDT (10/20)
Length of Visible Light 11h 42m
Length of Day
10h 42m
Tomorrow will be 3m 2s shorter.
Waning Crescent, 8% of the Moon is Illuminated
Today
Waning Crescent
Oct 23
New
Oct 30
First Quarter
Nov 6
Full
Nov 14
Last Quarter

Today's Extremes

State Highs State Lows

Community

WunderPhotos

Upload Photos

1,763,563 photos uploaded!

Nearby

Air Quality

  Air Quality AQ Index Pollutant
Yesterday Good
PM2.5
Yesterday Good
OZONE
Current Good
OZONE
Current Good
PM2.5
Monday Good
PM2.5
Tuesday Good
PM2.5

Snow Depth

Station Depth Elevation
Seine Creek 0 in 2000 ft
North Fork 0 in 3120 ft
Peavine Ridge 0 in 3500 ft
Greenpoint 0 in 3200 ft
Red Hill 0 in 4400 ft

Earthquake Activity

City Distance Mag. Time & Date
No recent earthquake activity has been reported nearby.
Minimum magnitude displayed is 2.5.

Coastal Water Temperatures

Place Temperature
No Stations Reporting

Nearby Weather Stations